createdAt,value
2023-06-16T00:03:45.171Z,98313.94
2023-06-16T00:06:15.429Z,98304.50
2023-06-16T00:11:18.946Z,98308.06
2023-06-16T00:13:46.979Z,98308.78
2023-06-16T00:16:14.585Z,98309.75
2023-06-16T00:18:45.036Z,98317.34
2023-06-16T00:21:14.703Z,98311.50
2023-06-16T00:23:42.464Z,98319.38
2023-06-16T00:26:09.314Z,98315.88
2023-06-16T00:31:09.810Z,98321.03
2023-06-16T00:33:36.899Z,98316.22
2023-06-16T00:36:04.445Z,98313.00
2023-06-16T00:38:31.412Z,98312.19
2023-06-16T00:40:58.321Z,98309.94
2023-06-16T00:43:25.108Z,98311.22
2023-06-16T00:45:52.704Z,98311.59
2023-06-16T00:48:20.708Z,98307.34
2023-06-16T00:50:48.148Z,98305.38
2023-06-16T00:53:14.990Z,98311.38
2023-06-16T00:55:42.274Z,98302.81
2023-06-16T00:58:09.271Z,98296.81
2023-06-16T01:00:37.574Z,98304.25
2023-06-16T01:03:10.356Z,98305.28
2023-06-16T01:05:37.965Z,98301.03
2023-06-16T01:08:23.659Z,98297.53
2023-06-16T01:24:03.392Z,98301.41
2023-06-16T01:26:36.635Z,98299.34
2023-06-16T01:31:41.589Z,98303.25
2023-06-16T01:34:11.041Z,98300.63
2023-06-16T01:36:40.727Z,98299.03
2023-06-16T01:39:09.405Z,98302.94
2023-06-16T01:41:38.338Z,98297.91
2023-06-16T01:44:06.413Z,98302.91
2023-06-16T01:46:34.452Z,98296.25
2023-06-16T01:49:01.531Z,98300.50
2023-06-16T01:51:28.622Z,98296.50
2023-06-16T01:53:55.493Z,98304.47
2023-06-16T01:58:53.699Z,98297.97
2023-06-16T02:01:41.725Z,98306.56
2023-06-16T02:04:16.342Z,98303.00
2023-06-16T02:06:55.407Z,98303.16
2023-06-16T02:09:24.549Z,98308.31
2023-06-16T02:11:53.306Z,98305.56
2023-06-16T02:14:20.279Z,98305.59
2023-06-16T02:16:47.094Z,98301.25
2023-06-16T02:19:13.947Z,98298.00
2023-06-16T02:24:15.948Z,98303.19
2023-06-16T02:26:42.773Z,98306.31
2023-06-16T02:29:09.610Z,98302.72
2023-06-16T02:31:36.447Z,98312.59
2023-06-16T02:34:03.394Z,98311.81
2023-06-16T02:36:30.600Z,98325.22
2023-06-16T02:38:57.609Z,98320.50
2023-06-16T02:41:24.363Z,98325.75
2023-06-16T02:43:51.112Z,98328.44
2023-06-16T02:46:17.916Z,98330.81
2023-06-16T02:48:44.774Z,98329.22
2023-06-16T02:51:11.664Z,98331.16
2023-06-16T02:53:40.621Z,98328.06
2023-06-16T02:56:08.624Z,98326.91
2023-06-16T02:58:35.515Z,98317.84
2023-06-16T03:01:03.034Z,98322.91
2023-06-16T03:06:11.398Z,98315.00
2023-06-16T03:11:09.593Z,98312.59
2023-06-16T03:13:36.461Z,98317.28
2023-06-16T03:16:04.761Z,98322.84
2023-06-16T03:18:31.508Z,98327.56
2023-06-16T03:20:59.348Z,98319.69
2023-06-16T03:23:26.233Z,98323.72
2023-06-16T03:25:53.911Z,98326.03
2023-06-16T03:28:21.021Z,98321.34
2023-06-16T03:30:47.814Z,98330.38
2023-06-16T03:33:14.598Z,98325.22
2023-06-16T03:35:41.526Z,98324.03
2023-06-16T03:38:08.288Z,98322.84
2023-06-16T03:40:35.097Z,98318.16
2023-06-16T03:43:03.774Z,98328.78
2023-06-16T03:45:30.679Z,98328.88
2023-06-16T03:47:57.431Z,98328.44
2023-06-16T03:50:24.228Z,98324.97
2023-06-16T03:53:06.022Z,98336.34
2023-06-16T03:55:37.699Z,98329.28
2023-06-16T03:58:04.518Z,98336.81
2023-06-16T04:00:31.368Z,98341.13
2023-06-16T04:05:29.346Z,98341.94
2023-06-16T04:07:57.319Z,98344.28
2023-06-16T04:10:24.269Z,98337.19
2023-06-16T04:12:51.018Z,98345.06
2023-06-16T04:15:17.739Z,98340.41
2023-06-16T04:20:16.068Z,98340.34
2023-06-16T04:22:43.676Z,98345.06
2023-06-16T04:25:10.690Z,98346.66
2023-06-16T04:27:39.040Z,98353.69
2023-06-16T04:30:08.098Z,98349.41
2023-06-16T04:32:37.598Z,98342.28
2023-06-16T04:35:05.999Z,98346.22
2023-06-16T04:37:34.636Z,98348.94
2023-06-16T04:40:03.206Z,98344.22
2023-06-16T04:42:31.406Z,98353.22
2023-06-16T04:44:59.483Z,98343.34
2023-06-16T04:47:26.437Z,98343.31
2023-06-16T04:49:53.387Z,98341.34
2023-06-16T04:52:20.199Z,98341.19
2023-06-16T04:54:47.498Z,98341.25
2023-06-16T04:57:14.798Z,98338.44
2023-06-16T04:59:41.645Z,98344.44
2023-06-16T05:02:08.583Z,98346.59
2023-06-16T05:07:06.891Z,98344.81
2023-06-16T05:09:33.799Z,98341.16
2023-06-16T05:12:00.904Z,98346.53
2023-06-16T05:14:27.657Z,98343.66
2023-06-16T05:16:54.479Z,98344.38
2023-06-16T05:19:21.533Z,98347.06
2023-06-16T05:21:48.436Z,98346.47
2023-06-16T05:24:15.356Z,98342.78
2023-06-16T05:26:42.756Z,98350.09
2023-06-16T05:29:09.704Z,98346.06
2023-06-16T05:31:37.105Z,98341.38
2023-06-16T05:36:37.411Z,98344.06
2023-06-16T05:39:04.865Z,98348.19
2023-06-16T05:41:31.889Z,98351.59
2023-06-16T05:43:59.017Z,98350.69
2023-06-16T05:46:25.773Z,98347.16
2023-06-16T05:48:53.709Z,98343.31
2023-06-16T05:51:20.506Z,98342.25
2023-06-16T05:53:47.306Z,98354.44
2023-06-16T05:56:16.465Z,98353.28
2023-06-16T05:58:43.223Z,98345.81
2023-06-16T06:01:14.604Z,98354.16
2023-06-16T06:03:46.800Z,98353.41
2023-06-16T06:08:44.983Z,98365.03
2023-06-16T06:11:12.784Z,98363.50
2023-06-16T06:13:39.518Z,98366.56
2023-06-16T06:16:06.322Z,98369.84
2023-06-16T06:18:33.171Z,98371.00
2023-06-16T06:20:59.976Z,98374.69
2023-06-16T06:23:27.002Z,98378.13
2023-06-16T06:25:53.752Z,98377.38
2023-06-16T06:28:20.654Z,98381.28
2023-06-16T06:30:47.494Z,98379.53
2023-06-16T06:33:14.237Z,98381.88
2023-06-16T06:38:13.997Z,98386.41
2023-06-16T06:43:19.004Z,98385.75
2023-06-16T06:45:46.876Z,98380.44
2023-06-16T06:48:13.754Z,98388.59
2023-06-16T06:53:19.970Z,98399.19
2023-06-16T06:55:47.062Z,98398.66
2023-06-16T07:00:46.462Z,98402.06
2023-06-16T07:03:14.021Z,98400.13
2023-06-16T07:08:12.125Z,98401.72
2023-06-16T07:10:38.921Z,98409.00
2023-06-16T07:15:45.416Z,98402.53
2023-06-16T07:18:12.352Z,98404.84
2023-06-16T07:20:39.249Z,98410.06
2023-06-16T07:23:06.377Z,98403.59
2023-06-16T07:25:37.496Z,98408.66
2023-06-16T07:28:08.843Z,98411.75
2023-06-16T07:30:35.784Z,98411.56
2023-06-16T07:33:02.602Z,98409.31
2023-06-16T07:35:29.816Z,98414.28
2023-06-16T07:37:56.718Z,98413.19
2023-06-16T07:40:23.486Z,98415.91
2023-06-16T07:42:50.613Z,98414.88
2023-06-16T07:45:19.010Z,98413.88
2023-06-16T07:47:47.354Z,98419.72
2023-06-16T07:50:16.195Z,98406.94
2023-06-16T07:52:43.344Z,98413.63
2023-06-16T07:55:12.140Z,98407.16
2023-06-16T08:00:19.909Z,98405.50
2023-06-16T08:02:47.167Z,98410.88
2023-06-16T08:05:17.896Z,98398.22
2023-06-16T08:07:45.256Z,98411.09
2023-06-16T08:10:15.646Z,98406.59
2023-06-16T08:12:45.329Z,98397.91
2023-06-16T08:17:44.809Z,98398.75
2023-06-16T08:20:12.428Z,98388.88
2023-06-16T08:22:39.255Z,98394.00
2023-06-16T08:25:06.766Z,98385.84
2023-06-16T08:27:33.560Z,98389.75
2023-06-16T08:30:00.373Z,98391.75
2023-06-16T08:32:27.266Z,98392.97
2023-06-16T08:34:54.089Z,98388.72
2023-06-16T08:37:29.597Z,98386.22
2023-06-16T08:39:57.441Z,98392.34
2023-06-16T08:42:24.877Z,98385.78
2023-06-16T08:44:55.360Z,98386.66
2023-06-16T08:47:22.206Z,98384.84
2023-06-16T08:49:53.856Z,98388.72
2023-06-16T08:52:34.448Z,98393.63
2023-06-16T08:55:10.848Z,98384.75
2023-06-16T08:57:45.517Z,98377.63
2023-06-16T09:00:12.902Z,98379.56
2023-06-16T09:02:42.133Z,98378.66
2023-06-16T09:05:10.940Z,98385.94
2023-06-16T09:07:43.418Z,98381.50
2023-06-16T09:10:10.375Z,98377.38
2023-06-16T09:12:37.464Z,98368.94
2023-06-16T09:17:41.914Z,98372.03
2023-06-16T09:20:19.578Z,98376.88
2023-06-16T09:22:51.234Z,98377.84
2023-06-16T09:25:18.590Z,98371.22
2023-06-16T09:27:50.657Z,98367.78
2023-06-16T09:30:22.216Z,98371.06
2023-06-16T09:32:51.821Z,98359.84
2023-06-16T09:35:23.827Z,98367.19
2023-06-16T09:37:53.152Z,98365.41
2023-06-16T09:40:21.662Z,98363.06
2023-06-16T09:42:52.032Z,98367.75
2023-06-16T09:45:21.514Z,98363.69
2023-06-16T09:47:50.090Z,98360.47
2023-06-16T09:50:19.502Z,98357.75
2023-06-16T09:52:48.441Z,98352.19
2023-06-16T09:55:16.364Z,98346.06
2023-06-16T09:57:45.324Z,98349.72
2023-06-16T10:00:18.430Z,98353.81
2023-06-16T10:02:54.558Z,98350.97
2023-06-16T10:05:23.542Z,98350.38
2023-06-16T10:07:52.526Z,98352.34
2023-06-16T10:13:06.354Z,98350.88
2023-06-16T10:15:38.588Z,98339.97
2023-06-16T10:20:42.080Z,98334.38
2023-06-16T10:23:09.741Z,98342.22
2023-06-16T10:25:37.090Z,98336.38
2023-06-16T10:28:09.491Z,98333.63
2023-06-16T10:30:37.733Z,98339.63
2023-06-16T10:33:17.628Z,98337.28
2023-06-16T10:36:04.230Z,98338.53
2023-06-16T10:38:41.693Z,98332.06
2023-06-16T10:41:13.695Z,98327.69
2023-06-16T10:48:58.853Z,98328.31
2023-06-16T10:51:42.800Z,98339.44
2023-06-16T10:54:10.609Z,98330.13
2023-06-16T11:00:14.109Z,98327.84
2023-06-16T11:02:52.545Z,98326.91
2023-06-16T11:05:24.050Z,98324.94
2023-06-16T11:08:02.640Z,98323.22
2023-06-16T11:10:29.427Z,98330.00
2023-06-16T11:15:27.716Z,98325.84
2023-06-16T11:17:54.538Z,98342.53
2023-06-16T11:20:22.097Z,98338.31
2023-06-16T11:22:51.060Z,98327.22
2023-06-16T11:25:17.925Z,98323.34
2023-06-16T11:27:44.798Z,98311.59
2023-06-16T11:30:12.426Z,98320.53
2023-06-16T11:35:13.023Z,98309.44
2023-06-16T11:37:52.595Z,98311.00
2023-06-16T11:40:24.225Z,98301.06
2023-06-16T11:42:57.809Z,98304.47
2023-06-16T11:45:28.239Z,98308.94
2023-06-16T11:47:57.380Z,98303.69
2023-06-16T11:50:24.819Z,98301.28
2023-06-16T11:52:53.370Z,98297.06
2023-06-16T11:55:21.079Z,98303.38
2023-06-16T11:57:48.004Z,98301.25
2023-06-16T12:00:16.252Z,98297.03
2023-06-16T12:02:47.750Z,98289.03
2023-06-16T12:05:21.743Z,98292.72
2023-06-16T12:07:49.662Z,98299.44
2023-06-16T12:10:17.168Z,98308.00
2023-06-16T12:12:45.024Z,98304.31
2023-06-16T12:15:17.285Z,98302.06
2023-06-16T12:17:45.079Z,98300.97
2023-06-16T12:20:13.828Z,98296.97
2023-06-16T12:22:41.551Z,98283.81
2023-06-16T12:25:12.839Z,98288.25
2023-06-16T12:27:45.085Z,98290.50
2023-06-16T12:30:13.597Z,98288.34
2023-06-16T12:32:42.568Z,98286.78
2023-06-16T12:35:10.447Z,98280.06
2023-06-16T12:37:41.219Z,98281.72
2023-06-16T12:40:12.383Z,98269.34
2023-06-16T12:42:39.801Z,98280.47
2023-06-16T12:45:07.749Z,98279.16
2023-06-16T12:47:36.164Z,98273.09
2023-06-16T12:50:05.980Z,98278.41
2023-06-16T12:52:32.984Z,98283.31
2023-06-16T12:55:01.378Z,98282.94
2023-06-16T12:57:28.944Z,98271.44
2023-06-16T12:59:56.274Z,98279.91
2023-06-16T13:02:24.045Z,98271.31
2023-06-16T13:04:51.045Z,98277.53
2023-06-16T13:09:55.675Z,98284.09
2023-06-16T13:12:22.442Z,98277.78
2023-06-16T13:14:49.344Z,98275.56
2023-06-16T13:17:16.150Z,98277.16
2023-06-16T13:19:42.898Z,98268.13
2023-06-16T13:22:09.734Z,98258.81
2023-06-16T13:24:38.535Z,98256.56
2023-06-16T13:29:36.617Z,98258.78
2023-06-16T13:32:03.462Z,98261.50
2023-06-16T13:34:30.250Z,98258.13
2023-06-16T13:36:57.904Z,98264.47
2023-06-16T13:39:24.913Z,98260.56
2023-06-16T13:41:51.868Z,98253.09
2023-06-16T13:44:18.621Z,98256.31
2023-06-16T13:46:45.427Z,98248.00
2023-06-16T13:49:13.284Z,98247.16
2023-06-16T13:54:15.932Z,98255.31
2023-06-16T13:56:43.146Z,98255.34
2023-06-16T13:59:10.050Z,98258.13
2023-06-16T14:04:08.489Z,98245.31
2023-06-16T14:06:35.204Z,98243.44
2023-06-16T14:09:01.979Z,98232.06
2023-06-16T14:11:29.881Z,98243.53
2023-06-16T14:16:27.891Z,98248.13
2023-06-16T14:18:56.244Z,98239.66
2023-06-16T14:21:22.996Z,98233.06
2023-06-16T14:23:52.217Z,98234.78
2023-06-16T14:26:19.291Z,98239.25
2023-06-16T14:28:46.200Z,98244.31
2023-06-16T14:31:13.017Z,98236.00
2023-06-16T14:33:39.731Z,98225.63
2023-06-16T14:36:06.724Z,98230.03
2023-06-16T14:38:33.872Z,98223.41
2023-06-16T14:41:00.704Z,98220.09
2023-06-16T14:43:27.479Z,98224.41
2023-06-16T14:45:54.216Z,98222.38
2023-06-16T14:48:20.982Z,98215.97
2023-06-16T14:50:48.386Z,98219.28
2023-06-16T14:53:15.207Z,98221.84
2023-06-16T14:55:42.070Z,98227.88
2023-06-16T14:58:08.817Z,98227.47
2023-06-16T15:00:35.527Z,98227.03
2023-06-16T15:03:02.441Z,98227.53
2023-06-16T15:05:29.262Z,98223.25
2023-06-16T15:07:56.088Z,98226.69
2023-06-16T15:10:23.060Z,98217.28
2023-06-16T15:12:50.144Z,98222.13
2023-06-16T15:15:17.048Z,98210.97
2023-06-16T15:17:43.975Z,98211.59
2023-06-16T15:20:11.490Z,98208.91
2023-06-16T15:22:38.304Z,98215.09
2023-06-16T15:25:05.773Z,98209.91
2023-06-16T15:27:32.569Z,98212.44
2023-06-16T15:29:59.286Z,98201.47
2023-06-16T15:32:26.100Z,98200.44
2023-06-16T15:34:52.888Z,98201.69
2023-06-16T15:37:19.777Z,98208.75
2023-06-16T15:39:46.610Z,98204.81
2023-06-16T15:42:13.460Z,98199.59
2023-06-16T15:44:41.061Z,98204.38
2023-06-16T15:47:07.952Z,98202.16
2023-06-16T15:49:34.846Z,98197.09
2023-06-16T15:52:02.658Z,98198.47
2023-06-16T15:57:01.457Z,98198.47
2023-06-16T15:59:28.329Z,98196.28
2023-06-16T16:01:55.134Z,98199.09
2023-06-16T16:04:22.051Z,98197.34
2023-06-16T16:06:49.031Z,98189.84
2023-06-16T16:11:53.983Z,98187.06
2023-06-16T16:14:20.853Z,98181.34
2023-06-16T16:16:47.963Z,98186.56
2023-06-16T16:19:14.876Z,98183.47
2023-06-16T16:21:41.742Z,98188.88
2023-06-16T16:24:10.837Z,98185.34
2023-06-16T16:26:37.874Z,98186.50
2023-06-16T16:29:04.808Z,98189.41
2023-06-16T16:31:31.596Z,98179.75
2023-06-16T16:33:58.374Z,98184.84
2023-06-16T16:36:25.277Z,98185.53
2023-06-16T16:38:52.058Z,98184.66
2023-06-16T16:41:18.835Z,98182.41
2023-06-16T16:43:45.743Z,98177.81
2023-06-16T16:48:50.496Z,98191.88
2023-06-16T16:51:17.240Z,98179.94
2023-06-16T16:58:54.705Z,98187.47
2023-06-16T17:01:21.626Z,98182.94
2023-06-16T17:03:48.554Z,98184.84
2023-06-16T17:06:15.703Z,98192.00
2023-06-16T17:08:42.461Z,98183.63
2023-06-16T17:11:09.318Z,98182.69
2023-06-16T17:13:36.413Z,98181.59
2023-06-16T17:16:04.218Z,98181.00
2023-06-16T17:18:31.031Z,98188.13
2023-06-16T17:23:31.079Z,98195.59
2023-06-16T17:25:57.818Z,98194.69
2023-06-16T17:30:56.106Z,98191.91
2023-06-16T17:33:23.095Z,98190.69
2023-06-16T17:35:49.845Z,98189.63
2023-06-16T17:38:16.620Z,98188.53
2023-06-16T17:40:43.405Z,98188.88
2023-06-16T17:43:10.214Z,98200.81
2023-06-16T17:45:36.997Z,98200.69
2023-06-16T17:48:03.977Z,98187.66
2023-06-16T17:50:30.927Z,98190.91
2023-06-16T17:53:02.475Z,98195.28
2023-06-16T17:55:29.267Z,98199.34
2023-06-16T17:57:56.100Z,98186.94
2023-06-16T18:00:23.169Z,98186.47
2023-06-16T18:02:50.291Z,98188.34
2023-06-16T18:05:17.245Z,98177.47
2023-06-16T18:07:43.966Z,98189.47
2023-06-16T18:10:11.247Z,98187.59
2023-06-16T18:12:37.975Z,98184.63
2023-06-16T18:15:05.392Z,98193.34
2023-06-16T18:17:32.668Z,98194.09
2023-06-16T18:19:59.555Z,98190.09
2023-06-16T18:22:26.380Z,98197.38
2023-06-16T18:24:53.275Z,98199.56
2023-06-16T18:27:20.066Z,98201.13
2023-06-16T18:29:46.808Z,98198.66
2023-06-16T18:32:14.865Z,98199.41
2023-06-16T18:34:43.036Z,98195.19
2023-06-16T18:37:09.904Z,98202.28
2023-06-16T18:39:36.716Z,98207.88
2023-06-16T18:42:03.906Z,98208.19
2023-06-16T18:44:31.018Z,98204.75
2023-06-16T18:46:58.289Z,98214.97
2023-06-16T18:49:24.981Z,98211.22
2023-06-16T18:51:51.849Z,98220.84
2023-06-16T18:54:19.500Z,98213.69
2023-06-16T18:56:46.428Z,98214.09
2023-06-16T18:59:13.194Z,98213.47
2023-06-16T19:01:41.771Z,98222.84
2023-06-16T19:04:08.708Z,98217.53
2023-06-16T19:06:35.561Z,98222.91
2023-06-16T19:09:02.329Z,98222.75
2023-06-16T19:11:29.195Z,98222.75
2023-06-16T19:13:56.197Z,98230.13
2023-06-16T19:16:23.013Z,98225.59
2023-06-16T19:18:49.806Z,98232.59
2023-06-16T19:21:16.766Z,98232.03
2023-06-16T19:23:44.629Z,98229.59
2023-06-16T19:26:11.992Z,98226.28
2023-06-16T19:28:47.569Z,98229.31
2023-06-16T19:31:16.133Z,98236.34
2023-06-16T19:33:43.198Z,98252.00
2023-06-16T19:36:10.065Z,98254.34
2023-06-16T19:38:36.927Z,98255.63
2023-06-16T19:41:03.839Z,98262.19
2023-06-16T19:43:30.785Z,98257.09
2023-06-16T19:45:57.488Z,98269.19
2023-06-16T19:48:24.248Z,98271.75
2023-06-16T19:53:29.533Z,98281.63
2023-06-16T19:55:58.313Z,98280.09
2023-06-16T19:58:25.133Z,98282.13
2023-06-16T20:00:51.894Z,98285.28
2023-06-16T20:03:19.246Z,98283.63
2023-06-16T20:05:46.302Z,98288.72
2023-06-16T20:10:45.376Z,98286.97
2023-06-16T20:13:12.408Z,98282.84
2023-06-16T20:15:39.294Z,98288.94
2023-06-16T20:18:06.203Z,98292.81
2023-06-16T20:23:04.906Z,98289.44
2023-06-16T20:25:31.678Z,98292.22
2023-06-16T20:30:36.017Z,98294.44
2023-06-16T20:33:03.017Z,98292.50
2023-06-16T20:35:29.991Z,98286.69
2023-06-16T20:37:58.167Z,98293.03
2023-06-16T20:40:28.499Z,98296.16
2023-06-16T20:42:57.629Z,98296.00
2023-06-16T20:45:26.244Z,98298.53
2023-06-16T20:47:54.646Z,98293.03
2023-06-16T20:50:24.224Z,98290.56
2023-06-16T20:52:52.379Z,98290.44
2023-06-16T20:55:19.632Z,98292.03
2023-06-16T20:57:47.935Z,98289.97
2023-06-16T21:00:15.568Z,98295.31
2023-06-16T21:02:42.596Z,98286.28
2023-06-16T21:05:13.332Z,98288.41
2023-06-16T21:07:45.673Z,98288.16
2023-06-16T21:10:13.888Z,98290.81
2023-06-16T21:12:41.189Z,98287.88
2023-06-16T21:15:08.954Z,98295.84
2023-06-16T21:17:36.476Z,98300.63
2023-06-16T21:20:06.199Z,98297.50
2023-06-16T21:22:33.284Z,98301.91
2023-06-16T21:25:00.033Z,98296.44
2023-06-16T21:27:29.748Z,98296.88
2023-06-16T21:29:58.922Z,98299.72
2023-06-16T21:32:28.159Z,98294.72
2023-06-16T21:34:56.725Z,98293.00
2023-06-16T21:37:25.699Z,98303.88
2023-06-16T21:40:12.074Z,98302.59
2023-06-16T21:42:43.696Z,98293.03
2023-06-16T21:45:13.522Z,98299.19
2023-06-16T21:47:41.128Z,98299.84
2023-06-16T21:50:09.163Z,98293.22
2023-06-16T21:52:36.613Z,98301.53
2023-06-16T21:55:04.933Z,98293.31
2023-06-16T21:57:32.351Z,98298.91
2023-06-16T21:59:59.870Z,98297.06
2023-06-16T22:02:27.699Z,98296.28
2023-06-16T22:04:54.589Z,98299.53
2023-06-16T22:07:22.578Z,98296.66
2023-06-16T22:09:52.232Z,98293.75
2023-06-16T22:12:19.977Z,98296.06
2023-06-16T22:14:47.404Z,98291.72
2023-06-16T22:17:15.252Z,98298.56
2023-06-16T22:19:43.164Z,98292.81
2023-06-16T22:22:11.297Z,98302.34
2023-06-16T22:24:40.189Z,98287.03
2023-06-16T22:27:20.446Z,98287.63
2023-06-16T22:29:48.890Z,98290.72
2023-06-16T22:32:15.737Z,98286.84
2023-06-16T22:34:42.590Z,98284.81
2023-06-16T22:37:12.064Z,98286.94
2023-06-16T22:39:40.835Z,98287.06
2023-06-16T22:42:07.771Z,98285.94
2023-06-16T22:44:34.493Z,98286.41
2023-06-16T22:47:02.909Z,98286.44
2023-06-16T22:49:30.040Z,98292.38
2023-06-16T22:51:58.788Z,98291.91
2023-06-16T22:54:26.998Z,98284.56
2023-06-16T22:59:25.922Z,98280.06
2023-06-16T23:01:52.906Z,98274.63
2023-06-16T23:04:20.100Z,98282.00
2023-06-16T23:06:46.937Z,98283.41
2023-06-16T23:09:14.068Z,98289.06
2023-06-16T23:14:19.799Z,98284.78
2023-06-16T23:16:47.710Z,98279.72
2023-06-16T23:19:14.742Z,98277.22
2023-06-16T23:21:44.488Z,98274.63
2023-06-16T23:24:12.302Z,98266.34
2023-06-16T23:26:45.765Z,98272.47
2023-06-16T23:29:19.041Z,98269.91
2023-06-16T23:34:24.473Z,98266.28
2023-06-16T23:36:51.514Z,98271.72
2023-06-16T23:39:18.482Z,98277.97
2023-06-16T23:41:45.243Z,98262.81
2023-06-16T23:44:12.123Z,98267.50
2023-06-16T23:46:38.990Z,98260.31
2023-06-16T23:49:05.914Z,98259.72
2023-06-16T23:51:32.756Z,98262.91
2023-06-16T23:53:59.537Z,98254.97
2023-06-16T23:56:26.510Z,98253.00
2023-06-16T23:58:53.319Z,98263.84
